2006/9/17 日曜日

台風接近。

typhoon13台風13号(サンサン)が九州北部に接近しています。進路にあたる地方の方々はどうぞご注意ください。

福岡空港、長崎空港のMETARも凄いことになっています。
RJFF 170830Z 08031G49KT 9999 -SHRA FEW015 SCT045 BKN060 26/22 Q0975
RJFU 170835Z 12078G99KT 0400 R32/0300V0900D +SHRA FEW005 BKN010 OVC020 24/22 Q0955 RMK 2ST005 6ST010 8CU020 A2820 P/FR

長崎空港の風が「78kt」ということは「秒速40m」ですね。また、突風が「99kt」となっていますが、たぶん2桁しか表示できないから「99kt」なのでしょう!? 本当はもっと凄い風なのかもしれません。

もちろん、これでは航空機の離発着は無理ですね。

鉄道も大変です。

17日午後2時5分ごろ、宮崎県延岡市構口町のJR日豊線南延岡駅構内で、別府発宮崎空港駅行き特急「にちりん9号」(5両編成)の先頭から2両が脱線し、横転した。

JR九州などによると、乗客は約30人で、このうち5人がけがをした。

宮崎県警によると、現場は南延岡駅の北側踏み切り付近で、そばの民家の窓ガラスが割れているという。南延岡駅の男性駅員(54)は、「にちりん9号が駅に入る前、ごみを巻き上げながら竜巻が接近してくるのが駅の事務室から見えた」と話している。この特急も、同駅で運行を打ち切る予定だった。

(YOMIURI ONLINEより引用)

昨年12月の羽越線の脱線事故を思い出しますね。

同じ時刻の航空自衛隊新田原基地のMETARです。
RJFN 170505Z 17021G36KT 8000 -SHRA FEW005 BKN010 BKN020 FEW020CB 25/24 Q0995 RMK 1ST005 5CU010 6CU020 1CB020 A2941 CB 20KM N
やはり風が強いですね。

「自然の力、恐るべし」ですね!!

No Tags

  • No Related Posts
  • Filed under: Airport — ◇敏郎◇ @ 18:33:20

    気になるフライト(44)

    「気になるフライト」シリーズは久しぶりです。
    この間、「気になるフライト」がなかった訳ではないのですが、「修行」に集中していたのでご無沙汰になっていました。「修行」も一段落したので、これからは「修行」以外の話題も増えていくと思います!?

    さて、本題ですが、元Virgin Atlantic Airways(VIR/VS)のB742(◇敏郎◇にはAir New Zealandの頃の印象が強いのですが)がフェリーされています。現在、Anchorage(PANC/ANC)に向けて飛行中です。

    N705TA B742 KRME/PANC/UUDD

    この機体は、1982年6月にZK-NZYとしてAir New Zealand(ANZ/NZ)にデリバリィされ、1996年1月から一時、Air Pacific(FJI/FJ)にリースされ、2000年3月からはG-VPUFとしてVirgin Atlantic Airways(VIR/VS)で飛んでいました。その後、Mojave(MHV/MHV)やSan Antonio(KSAT/SAT)でストアされていました。
    今後はVP-BQCとしてTransaero Airlines(TSO/UN)で活躍するようです。

    「ジャンボ」といえばB742ですから、B742にはいつまでも活躍してほしいものです。

    (続きを読む)>>

    No Tags

  • No Related Posts
  • Filed under: Airliner — ◇敏郎◇ @ 8:10:14

    HTML convert time: 0.249 sec. Powered by WordPress ME